Página principal
METAR-TAF:

METAR-TAF

Aeroportos :

Oral, Cazaquistão

latitude: 51-15N, longitude: 051-17E, altura: 36 m

Observação actual do tempo

O boletim foi feito há 20 minutos, às 02:00 UTC
Vento 8 kt de nor-noroeste
Temperatura -6°C
Humidade 79%
Pressão 1026 hPa
Visibilidade 10 km ou mais
sem nuvens abaixo de 1500 metros e sem cumulonimbus

METAR: UARR 190200Z 34004MPS CAVOK M06/M09 Q1026 R04/CLRD70 NOSIG RMK QFE766/1021

Hora: 07:20 (02:20 UTC)

Previsão

O boletim foi feito há 3 horas e 19 minutos, às 23:01 UTC
Previsão válida de 19 às 00 UTC a 19 às 09 UTC
Vento 10 kt de norte
Visibilidade 10 km ou mais
sem nuvens abaixo de 1500 metros e sem cumulonimbus
Temporariamente
de 19 às 06 UTC a 19 às 09 UTC
Vento 16 kt de nor-nordeste

TAF: UARR 182301Z 1900/1909 36005MPS CAVOK TEMPO 1906/1909 02008MPS

Observações e previsões do tempo de mais de 4000 aeroportos (mensagens METAR e TAF).

As estações disponíveis são os pontos amarelos e vermelhos sobre o mapa.

Mova o rato sobre o mapa para ver o nome da estação.

Depois clique no ponto para visualizar as observações e previsões meteorológicas.

Para alterar o mapa : clique nos botões verdes com uma cruz preta para aumentar o zoom; no botão verde com uma pitada de zoom; ou nas setas verdes para mapas adjacentes.


METAR-TAF: